Time;durP1;ratioP1;P1;durP2;ratioP2;P2;SDS_P1;SDS_P2;PMS_P1;PMS_P2;Temp;Humidity;BMP_temperature;BMP_pressure;BME280_temperature;BME280_humidity;BME280_pressure;Samples;Min_cycle;Max_cycle;Signal;HPM_P1;HPM_P2
2022/07/08 00:02:17;;;;;;;4.60;3.10;;;17.20;99.90;;;;;;5069937;28;20542;-70
2022/07/08 00:04:44;;;;;;;4.27;2.60;;;17.10;99.90;;;;;;5069628;28;20479;-69
2022/07/08 00:07:11;;;;;;;4.90;2.50;;;17.10;99.90;;;;;;5070070;28;20457;-67
2022/07/08 00:09:39;;;;;;;4.83;2.70;;;17.00;99.90;;;;;;5069901;28;20453;-66
2022/07/08 00:12:06;;;;;;;5.63;2.70;;;17.00;99.90;;;;;;5069744;28;20470;-67
2022/07/08 00:14:33;;;;;;;6.67;2.80;;;17.00;99.90;;;;;;5066487;28;20477;-66
2022/07/08 00:17:00;;;;;;;5.47;2.67;;;16.90;99.90;;;;;;5070228;28;20436;-65
2022/07/08 00:19:28;;;;;;;6.10;2.60;;;16.90;99.90;;;;;;5064261;28;20439;-67
2022/07/08 00:21:55;;;;;;;6.37;2.50;;;16.90;99.90;;;;;;5072982;28;20438;-65
2022/07/08 00:24:22;;;;;;;5.20;2.40;;;16.80;99.90;;;;;;5073260;28;20479;-65
2022/07/08 00:26:48;;;;;;;9.07;2.80;;;16.80;99.90;;;;;;5073644;28;20458;-68
2022/07/08 00:29:15;;;;;;;6.27;2.50;;;16.80;99.90;;;;;;5073790;28;20450;-66
2022/07/08 00:31:42;;;;;;;7.80;2.87;;;16.70;99.90;;;;;;5073184;28;21182;-66
2022/07/08 00:34:09;;;;;;;6.50;2.90;;;16.70;99.90;;;;;;5073469;28;20465;-66
2022/07/08 00:36:37;;;;;;;4.93;3.47;;;16.60;99.90;;;;;;5073075;28;20451;-66
2022/07/08 00:39:04;;;;;;;5.87;3.33;;;16.50;99.90;;;;;;5073538;28;20451;-66
2022/07/08 00:41:31;;;;;;;6.00;3.70;;;16.40;99.90;;;;;;5072934;28;20945;-67
2022/07/08 00:43:58;;;;;;;8.00;4.47;;;16.40;99.90;;;;;;5072990;28;20482;-66
2022/07/08 00:46:25;;;;;;;7.63;3.80;;;16.30;99.90;;;;;;5073170;28;20845;-68
2022/07/08 00:48:52;;;;;;;7.53;4.00;;;16.20;99.90;;;;;;5073050;28;20442;-66
2022/07/08 00:51:19;;;;;;;11.97;4.30;;;16.10;99.90;;;;;;5072629;28;20825;-66
2022/07/08 00:53:51;;;;;;;9.80;4.90;;;16.00;99.90;;;;;;5073058;28;20463;-66
2022/07/08 00:56:19;;;;;;;4.47;3.80;;;15.90;99.90;;;;;;5073234;28;20451;-66
2022/07/08 00:58:47;;;;;;;5.10;4.20;;;15.90;99.90;;;;;;5072919;28;20451;-67
2022/07/08 01:01:15;;;;;;;8.10;3.87;;;15.90;99.90;;;;;;5072541;28;20971;-66
2022/07/08 01:03:42;;;;;;;8.37;4.37;;;15.90;99.90;;;;;;5072567;28;20573;-66
2022/07/08 01:06:09;;;;;;;10.13;4.67;;;15.80;99.90;;;;;;5072779;28;20453;-67
2022/07/08 01:08:36;;;;;;;8.80;4.53;;;15.80;99.90;;;;;;5072840;28;20530;-67
2022/07/08 01:11:04;;;;;;;8.20;4.93;;;15.80;99.90;;;;;;5072389;28;20457;-66
2022/07/08 01:13:31;;;;;;;5.90;4.00;;;15.70;99.90;;;;;;5072620;28;21009;-68
2022/07/08 01:15:58;;;;;;;7.10;4.27;;;15.70;99.90;;;;;;5072406;28;20446;-68
2022/07/08 01:18:28;;;;;;;11.03;5.70;;;15.60;99.90;;;;;;5072556;28;20478;-66
2022/07/08 01:20:57;;;;;;;6.40;4.83;;;15.50;99.90;;;;;;5072352;28;20463;-67
2022/07/08 01:23:24;;;;;;;10.27;3.93;;;15.50;99.90;;;;;;5072600;28;20463;-66
2022/07/08 01:25:51;;;;;;;8.60;4.43;;;15.50;99.90;;;;;;5072344;28;20451;-66
2022/07/08 01:28:18;;;;;;;10.70;5.73;;;15.40;99.90;;;;;;5072584;28;20450;-66
2022/07/08 01:30:45;;;;;;;7.43;5.07;;;15.40;99.90;;;;;;5071761;28;20454;-69
2022/07/08 01:33:12;;;;;;;7.73;4.50;;;15.40;99.90;;;;;;5072507;28;20485;-67
2022/07/08 01:35:39;;;;;;;8.33;4.40;;;15.40;99.90;;;;;;5072251;28;20443;-66
2022/07/08 01:38:07;;;;;;;5.67;4.20;;;15.30;99.90;;;;;;5072078;28;20458;-67
2022/07/08 01:40:34;;;;;;;5.93;4.63;;;15.20;99.90;;;;;;5071778;28;21022;-66
2022/07/08 01:43:01;;;;;;;8.23;4.50;;;15.20;99.90;;;;;;5072065;28;20502;-68
2022/07/08 01:45:27;;;;;;;6.73;4.30;;;15.10;99.90;;;;;;5071949;28;20485;-67
2022/07/08 01:47:54;;;;;;;8.57;4.30;;;15.00;99.90;;;;;;5072200;28;20453;-67
2022/07/08 01:50:21;;;;;;;8.10;4.70;;;14.90;99.90;;;;;;5071969;28;20447;-66
2022/07/08 01:52:48;;;;;;;7.43;4.97;;;14.80;99.90;;;;;;5071951;28;20467;-67
2022/07/08 01:55:16;;;;;;;10.50;5.00;;;14.60;99.90;;;;;;5071968;28;20457;-67
2022/07/08 01:57:43;;;;;;;8.47;4.80;;;14.50;99.90;;;;;;5069803;28;20446;-67
2022/07/08 02:00:11;;;;;;;7.60;4.30;;;14.40;99.90;;;;;;5066009;28;20442;-67
2022/07/08 02:02:37;;;;;;;7.83;4.10;;;14.40;99.90;;;;;;5068629;28;20541;-68
2022/07/08 02:05:05;;;;;;;5.07;3.83;;;14.50;99.90;;;;;;5071388;28;20478;-68
2022/07/08 02:07:32;;;;;;;6.47;3.80;;;14.60;99.90;;;;;;5071469;28;20443;-66
2022/07/08 02:09:59;;;;;;;10.10;4.53;;;14.60;99.90;;;;;;5071412;28;20461;-69
2022/07/08 02:12:26;;;;;;;6.73;3.43;;;14.70;99.90;;;;;;5071308;28;20997;-67
2022/07/08 02:14:55;;;;;;;5.30;3.57;;;14.70;99.90;;;;;;5068858;28;20447;-68
2022/07/08 02:17:23;;;;;;;6.57;3.87;;;14.80;99.90;;;;;;5068218;28;20447;-67
2022/07/08 02:19:51;;;;;;;8.03;3.90;;;14.80;99.90;;;;;;5067749;28;21219;-67
2022/07/08 02:22:18;;;;;;;9.10;3.70;;;14.90;99.90;;;;;;5071210;28;20443;-67
2022/07/08 02:24:47;;;;;;;7.47;4.67;;;14.90;99.90;;;;;;5071057;28;20482;-68
2022/07/08 02:27:14;;;;;;;10.70;4.20;;;14.90;99.90;;;;;;5071310;28;20443;-67
2022/07/08 02:29:42;;;;;;;7.93;4.40;;;14.90;99.90;;;;;;5071276;28;20477;-67
2022/07/08 02:32:09;;;;;;;4.93;3.40;;;14.90;99.90;;;;;;5071203;28;20451;-66
2022/07/08 02:34:36;;;;;;;7.67;3.80;;;14.90;99.90;;;;;;5071070;28;20473;-65
2022/07/08 02:37:03;;;;;;;7.97;4.40;;;14.80;99.90;;;;;;5071244;28;20550;-66
2022/07/08 02:39:30;;;;;;;8.43;4.10;;;14.70;99.90;;;;;;5070964;28;20480;-67
2022/07/08 02:41:57;;;;;;;6.20;3.90;;;14.70;99.90;;;;;;5070437;28;20465;-66
2022/07/08 02:44:24;;;;;;;7.30;4.10;;;14.60;99.90;;;;;;5070855;28;20489;-68
2022/07/08 02:46:52;;;;;;;6.93;4.47;;;14.50;99.90;;;;;;5071430;28;20443;-67
2022/07/08 02:49:19;;;;;;;6.20;3.60;;;14.50;99.90;;;;;;5071187;28;20450;-67
2022/07/08 02:51:46;;;;;;;6.10;3.57;;;14.50;99.90;;;;;;5070793;28;20451;-67
2022/07/08 02:54:12;;;;;;;8.43;3.97;;;14.60;99.90;;;;;;5070950;28;20455;-67
2022/07/08 02:56:39;;;;;;;7.07;3.40;;;14.60;99.90;;;;;;5071089;28;20455;-67
2022/07/08 02:59:06;;;;;;;8.63;3.23;;;14.60;99.90;;;;;;5070986;28;20443;-67
2022/07/08 03:01:33;;;;;;;7.67;3.60;;;14.70;99.90;;;;;;5070367;28;20458;-67
2022/07/08 03:04:01;;;;;;;9.47;3.63;;;14.60;99.90;;;;;;5070603;28;20839;-64
2022/07/08 03:06:28;;;;;;;6.33;3.00;;;14.60;99.90;;;;;;5070508;28;20960;-66
2022/07/08 03:08:54;;;;;;;5.53;3.77;;;14.60;99.90;;;;;;5070463;28;20447;-67
2022/07/08 03:11:22;;;;;;;5.40;3.20;;;14.60;99.90;;;;;;5070190;28;20459;-67
2022/07/08 03:13:48;;;;;;;6.83;3.27;;;14.70;99.90;;;;;;5070539;28;20471;-67
2022/07/08 03:16:15;;;;;;;6.23;3.13;;;14.60;99.90;;;;;;5070303;28;20451;-66
2022/07/08 03:18:42;;;;;;;5.53;3.40;;;14.60;99.90;;;;;;5070424;28;20443;-67
2022/07/08 03:21:11;;;;;;;7.70;3.90;;;14.60;99.90;;;;;;5069955;28;20455;-67
2022/07/08 03:23:37;;;;;;;9.40;3.33;;;14.60;99.90;;;;;;5070219;28;20574;-67
2022/07/08 03:26:04;;;;;;;9.13;3.43;;;14.60;99.90;;;;;;5070307;28;20487;-66
2022/07/08 03:28:31;;;;;;;8.47;3.60;;;14.60;99.90;;;;;;5070139;28;20458;-66
2022/07/08 03:30:58;;;;;;;6.87;4.10;;;14.60;99.90;;;;;;5069728;28;20447;-67
2022/07/08 03:33:25;;;;;;;9.37;3.50;;;14.60;99.90;;;;;;5069797;28;20463;-68
2022/07/08 03:35:52;;;;;;;7.73;3.03;;;14.60;99.90;;;;;;5069977;28;20443;-67
2022/07/08 03:38:20;;;;;;;6.67;3.40;;;14.60;99.90;;;;;;5069708;28;20948;-67
2022/07/08 03:43:31;;;;;;;5.40;3.17;;;14.50;99.90;;;;;;5069839;28;20439;-67
2022/07/08 03:45:58;;;;;;;5.67;2.97;;;14.50;99.90;;;;;;5069865;28;20489;-68
2022/07/08 03:48:24;;;;;;;8.30;3.50;;;14.40;99.90;;;;;;5069685;28;20457;-68
2022/07/08 03:50:51;;;;;;;7.50;3.57;;;14.40;99.90;;;;;;5069564;28;20549;-67
2022/07/08 03:53:20;;;;;;;6.70;3.03;;;14.30;99.90;;;;;;5069526;28;20499;-68
2022/07/08 03:55:47;;;;;;;9.43;3.63;;;14.20;99.90;;;;;;5069183;28;20443;-68
2022/07/08 03:58:14;;;;;;;6.80;3.47;;;14.20;99.90;;;;;;5069785;28;20496;-66
2022/07/08 04:00:41;;;;;;;9.73;3.67;;;14.20;99.90;;;;;;5069312;28;20454;-67
2022/07/08 04:03:08;;;;;;;4.23;2.90;;;14.30;99.90;;;;;;5069563;28;20476;-67
2022/07/08 04:05:35;;;;;;;5.87;3.63;;;14.30;99.90;;;;;;5069569;28;20487;-68
2022/07/08 04:08:02;;;;;;;7.07;3.77;;;14.20;99.90;;;;;;5066761;28;20873;-69
2022/07/08 04:10:30;;;;;;;5.93;2.90;;;14.20;99.90;;;;;;5064224;28;20443;-67
2022/07/08 04:12:57;;;;;;;6.97;3.40;;;14.20;99.90;;;;;;5069650;28;20471;-67
2022/07/08 04:15:23;;;;;;;6.20;3.40;;;14.20;99.90;;;;;;5069325;28;20446;-68
2022/07/08 04:17:52;;;;;;;6.63;3.90;;;14.20;99.90;;;;;;5069514;28;20443;-67
2022/07/08 04:20:19;;;;;;;5.33;3.80;;;14.20;99.90;;;;;;5069155;28;20483;-67
2022/07/08 04:22:45;;;;;;;4.97;3.60;;;14.10;99.90;;;;;;5069460;28;20482;-67
2022/07/08 04:25:13;;;;;;;6.17;3.70;;;14.10;99.90;;;;;;5069436;28;20493;-68
2022/07/08 04:27:41;;;;;;;8.77;3.97;;;14.10;99.90;;;;;;5069550;28;20446;-66
2022/07/08 04:30:08;;;;;;;7.67;4.03;;;14.10;99.90;;;;;;5068977;28;20453;-67
2022/07/08 04:32:35;;;;;;;7.40;3.80;;;14.00;99.90;;;;;;5069372;28;20485;-67
2022/07/08 04:35:02;;;;;;;7.83;3.70;;;13.90;99.90;;;;;;5069714;28;20935;-66
2022/07/08 04:37:29;;;;;;;8.07;4.30;;;13.90;99.90;;;;;;5069333;28;20461;-66
2022/07/08 04:39:56;;;;;;;5.43;3.60;;;13.90;99.90;;;;;;5069395;28;20881;-66
2022/07/08 04:42:23;;;;;;;6.20;4.00;;;13.80;99.90;;;;;;5069080;28;20819;-67
2022/07/08 04:44:51;;;;;;;6.90;4.10;;;13.80;99.90;;;;;;5069067;28;20569;-66
2022/07/08 04:47:18;;;;;;;7.27;3.63;;;13.80;99.90;;;;;;5069172;28;20460;-66
2022/07/08 04:49:45;;;;;;;7.30;4.13;;;13.80;99.90;;;;;;5068590;28;20443;-66
2022/07/08 04:52:12;;;;;;;7.17;3.73;;;13.80;99.90;;;;;;5069185;28;20937;-66
2022/07/08 04:54:38;;;;;;;7.20;3.97;;;13.90;99.90;;;;;;5066211;28;21077;-65
2022/07/08 04:57:06;;;;;;;10.40;4.20;;;13.90;99.90;;;;;;5064340;28;20444;-65
2022/07/08 04:59:33;;;;;;;6.63;4.23;;;13.90;99.90;;;;;;5065794;28;20458;-66
2022/07/08 05:02:02;;;;;;;7.73;4.63;;;14.00;99.90;;;;;;5068632;28;20892;-66
2022/07/08 05:04:29;;;;;;;7.20;4.10;;;13.90;99.90;;;;;;5068760;28;20821;-65
2022/07/08 05:06:55;;;;;;;9.00;4.30;;;14.00;99.90;;;;;;5072262;28;20435;-68
2022/07/08 05:09:22;;;;;;;9.70;5.80;;;14.00;99.90;;;;;;5072469;28;20439;-67
2022/07/08 05:11:49;;;;;;;8.00;6.00;;;14.00;99.90;;;;;;5071347;28;20457;-66
2022/07/08 05:14:16;;;;;;;11.20;6.50;;;13.90;99.90;;;;;;5072382;28;20497;-67
2022/07/08 05:16:44;;;;;;;12.40;6.93;;;14.00;99.90;;;;;;5072835;28;20439;-66
2022/07/08 05:19:12;;;;;;;9.93;6.50;;;14.00;99.90;;;;;;5072998;28;20969;-66
2022/07/08 05:21:39;;;;;;;9.60;7.40;;;14.10;99.90;;;;;;5071949;28;20430;-65
2022/07/08 05:24:06;;;;;;;9.43;6.10;;;14.20;99.90;;;;;;5072743;28;20471;-67
2022/07/08 05:26:34;;;;;;;7.80;5.80;;;14.20;99.90;;;;;;5072680;28;20577;-66
2022/07/08 05:29:01;;;;;;;6.73;3.43;;;14.30;99.90;;;;;;5072829;28;20443;-67
2022/07/08 05:31:28;;;;;;;7.63;3.80;;;14.30;99.90;;;;;;5071978;28;20435;-65
2022/07/08 05:33:55;;;;;;;10.47;4.77;;;14.40;99.90;;;;;;5072555;28;20470;-67
2022/07/08 05:36:24;;;;;;;8.43;4.33;;;14.50;99.90;;;;;;5072192;28;20439;-66
2022/07/08 05:38:51;;;;;;;6.10;3.50;;;14.60;99.90;;;;;;5072274;28;20530;-66
2022/07/08 05:41:18;;;;;;;5.20;3.07;;;14.70;99.90;;;;;;5072052;28;20443;-65
2022/07/08 05:43:45;;;;;;;7.00;3.30;;;14.90;99.90;;;;;;5072196;28;20928;-67
2022/07/08 05:46:12;;;;;;;7.07;2.93;;;14.90;99.90;;;;;;5072285;28;20478;-67
2022/07/08 05:48:39;;;;;;;7.23;2.93;;;15.00;99.90;;;;;;5072085;28;20442;-68
2022/07/08 05:51:06;;;;;;;8.73;3.80;;;15.10;99.90;;;;;;5071838;28;20441;-65
2022/07/08 05:53:34;;;;;;;6.50;2.60;;;15.10;99.90;;;;;;5071909;28;20463;-66
2022/07/08 05:56:00;;;;;;;8.23;2.80;;;15.20;99.90;;;;;;5071397;28;20959;-66
2022/07/08 05:58:27;;;;;;;7.40;2.90;;;15.20;99.90;;;;;;5069119;28;20454;-67
2022/07/08 06:00:54;;;;;;;5.80;3.20;;;15.20;99.90;;;;;;5069851;28;20530;-67
2022/07/08 06:03:21;;;;;;;10.67;2.90;;;15.30;99.90;;;;;;5071013;28;20473;-67
2022/07/08 06:05:48;;;;;;;9.00;3.23;;;15.40;99.90;;;;;;5071417;28;20477;-67
2022/07/08 06:08:14;;;;;;;9.50;2.87;;;15.40;99.90;;;;;;5065245;28;20435;-67
2022/07/08 06:10:42;;;;;;;6.47;2.80;;;15.50;99.90;;;;;;5071674;28;20443;-67
2022/07/08 06:13:10;;;;;;;6.80;2.93;;;15.60;99.90;;;;;;5071716;28;20822;-67
2022/07/08 06:15:36;;;;;;;7.60;3.00;;;15.60;99.90;;;;;;5071471;28;20439;-66
2022/07/08 06:18:03;;;;;;;7.63;3.30;;;15.50;99.90;;;;;;5069725;28;20453;-67
2022/07/08 06:20:30;;;;;;;8.10;3.40;;;15.60;99.90;;;;;;5065928;28;20798;-67
2022/07/08 06:22:57;;;;;;;9.20;3.20;;;15.60;99.90;;;;;;5066021;28;20538;-66
2022/07/08 06:25:24;;;;;;;6.37;2.77;;;15.60;99.90;;;;;;5064966;28;20472;-66
2022/07/08 06:27:52;;;;;;;4.53;2.93;;;15.70;99.90;;;;;;5068641;28;20447;-67
2022/07/08 06:30:19;;;;;;;5.23;2.40;;;15.70;99.90;;;;;;5068357;28;20990;-66
2022/07/08 06:32:46;;;;;;;5.50;2.60;;;15.80;99.90;;;;;;5063775;28;20988;-67
2022/07/08 06:35:13;;;;;;;5.37;3.23;;;15.80;99.90;;;;;;5064000;28;20547;-68
2022/07/08 06:37:39;;;;;;;8.33;2.20;;;15.80;99.90;;;;;;5064742;28;20476;-66
2022/07/08 06:40:08;;;;;;;5.23;2.53;;;15.80;99.90;;;;;;5065958;28;20805;-66
2022/07/08 06:42:34;;;;;;;11.97;2.70;;;15.90;99.90;;;;;;5062115;28;20476;-66
2022/07/08 06:45:03;;;;;;;4.00;1.80;;;15.90;99.90;;;;;;5058022;28;20526;-67
2022/07/08 06:47:29;;;;;;;6.53;2.30;;;16.00;99.90;;;;;;5054130;28;20455;-66
2022/07/08 06:49:56;;;;;;;5.73;2.47;;;16.10;99.90;;;;;;5061732;28;20586;-67
2022/07/08 06:52:23;;;;;;;7.70;2.87;;;16.10;99.90;;;;;;5058241;28;20592;-66
2022/07/08 06:54:50;;;;;;;4.17;1.80;;;16.10;99.90;;;;;;5055787;28;20519;-65
2022/07/08 06:57:18;;;;;;;6.03;2.33;;;16.10;99.90;;;;;;5059035;28;20483;-67
2022/07/08 06:59:45;;;;;;;4.50;2.17;;;16.30;99.90;;;;;;5064013;28;20455;-67
2022/07/08 07:02:13;;;;;;;6.50;2.53;;;16.30;99.90;;;;;;5064508;28;20662;-66
2022/07/08 07:04:40;;;;;;;3.63;1.90;;;16.50;99.90;;;;;;5067092;28;20530;-67
2022/07/08 07:07:07;;;;;;;9.20;2.57;;;16.60;99.90;;;;;;5065688;28;20487;-66
2022/07/08 07:09:34;;;;;;;4.77;2.60;;;16.80;99.90;;;;;;5067985;28;21153;-66
2022/07/08 07:12:01;;;;;;;5.07;2.80;;;16.60;99.90;;;;;;5066964;28;20516;-66
2022/07/08 07:14:27;;;;;;;7.07;2.00;;;16.50;99.90;;;;;;5067214;28;20980;-67
2022/07/08 07:16:54;;;;;;;5.00;2.10;;;16.70;99.90;;;;;;5066788;28;20459;-68
2022/07/08 07:19:22;;;;;;;5.50;1.80;;;17.00;99.90;;;;;;5065995;28;20538;-68
2022/07/08 07:21:49;;;;;;;4.23;1.63;;;17.40;99.90;;;;;;5069787;28;20446;-68
2022/07/08 07:24:16;;;;;;;5.60;2.20;;;17.60;99.90;;;;;;5067205;28;20498;-67
2022/07/08 07:26:43;;;;;;;8.03;2.97;;;17.40;99.90;;;;;;5065993;28;20888;-67
2022/07/08 07:29:10;;;;;;;6.07;1.83;;;17.50;99.90;;;;;;5064279;28;20529;-67
2022/07/08 07:31:37;;;;;;;3.80;1.80;;;17.70;99.90;;;;;;5062269;28;21005;-69
2022/07/08 07:34:04;;;;;;;3.33;1.90;;;18.10;99.90;;;;;;5068930;28;20463;-66
2022/07/08 07:36:32;;;;;;;4.60;2.03;;;18.40;99.60;;;;;;5069541;28;20466;-70
2022/07/08 07:38:59;;;;;;;7.87;1.97;;;18.50;99.60;;;;;;5064793;28;20446;-68
2022/07/08 07:41:27;;;;;;;3.70;1.83;;;18.50;99.10;;;;;;5064486;28;20455;-68
2022/07/08 07:43:54;;;;;;;7.30;1.80;;;18.50;98.60;;;;;;5069305;28;20473;-68
2022/07/08 07:46:21;;;;;;;7.63;2.07;;;18.30;98.10;;;;;;5066498;28;21026;-67
2022/07/08 07:48:47;;;;;;;4.50;2.03;;;18.10;99.10;;;;;;5067562;28;20451;-67
2022/07/08 07:51:15;;;;;;;3.70;1.70;;;18.10;99.80;;;;;;5069043;28;20448;-68
2022/07/08 07:53:43;;;;;;;5.73;2.20;;;18.30;99.10;;;;;;5064180;28;20533;-68
2022/07/08 07:56:09;;;;;;;3.53;1.80;;;18.40;98.60;;;;;;5064767;28;20814;-67
2022/07/08 07:58:38;;;;;;;4.33;1.97;;;18.30;98.80;;;;;;5067124;28;20462;-68
2022/07/08 08:01:05;;;;;;;5.73;2.20;;;18.70;98.20;;;;;;5063549;28;20451;-68
2022/07/08 08:03:32;;;;;;;3.93;2.27;;;18.70;97.10;;;;;;5069597;28;20475;-66
2022/07/08 08:05:59;;;;;;;5.80;1.90;;;18.90;97.70;;;;;;5069496;28;20479;-67
2022/07/08 08:08:26;;;;;;;4.23;1.93;;;19.00;97.60;;;;;;5070004;28;20455;-67
2022/07/08 08:10:54;;;;;;;6.17;2.20;;;18.60;97.40;;;;;;5067380;28;20453;-68
2022/07/08 08:13:21;;;;;;;6.93;2.00;;;18.60;99.30;;;;;;5060526;28;20490;-68
2022/07/08 08:15:48;;;;;;;4.73;2.00;;;18.80;97.10;;;;;;5069254;28;20509;-66
2022/07/08 08:18:15;;;;;;;7.47;2.37;;;19.20;98.70;;;;;;5065622;28;20474;-70
2022/07/08 08:20:42;;;;;;;5.97;2.40;;;19.30;96.00;;;;;;5061560;28;20447;-67
2022/07/08 08:23:09;;;;;;;3.80;1.30;;;19.20;96.90;;;;;;5066645;28;20532;-67
2022/07/08 08:25:36;;;;;;;3.60;1.73;;;19.40;96.90;;;;;;5068836;28;20450;-66
2022/07/08 08:28:04;;;;;;;3.30;1.57;;;19.40;95.70;;;;;;5066279;28;20455;-65
2022/07/08 08:30:31;;;;;;;4.70;1.83;;;19.40;95.70;;;;;;5068551;28;20465;-68
2022/07/08 08:32:58;;;;;;;9.37;2.30;;;19.60;95.80;;;;;;5062938;28;20554;-65
2022/07/08 08:35:26;;;;;;;6.80;1.67;;;20.00;95.60;;;;;;5069060;28;20478;-67
2022/07/08 08:37:52;;;;;;;4.13;1.50;;;20.30;94.80;;;;;;5068649;28;20810;-66
2022/07/08 08:40:22;;;;;;;4.27;1.83;;;20.30;95.60;;;;;;5061855;28;20453;-67
2022/07/08 08:42:49;;;;;;;5.30;2.30;;;20.10;95.30;;;;;;5065854;28;20474;-66
2022/07/08 08:45:17;;;;;;;3.40;1.70;;;20.00;94.70;;;;;;5069326;28;20550;-68
2022/07/08 08:47:47;;;;;;;5.80;2.00;;;19.90;95.00;;;;;;5067988;28;20544;-67
2022/07/08 08:53:03;;;;;;;5.23;1.70;;;20.50;97.50;;;;;;5068873;28;20478;-67
2022/07/08 08:55:33;;;;;;;5.50;1.70;;;21.10;94.00;;;;;;5070116;28;20439;-67
2022/07/08 08:58:01;;;;;;;4.13;2.17;;;20.90;92.90;;;;;;5071417;28;20469;-66
2022/07/08 09:00:31;;;;;;;5.27;2.20;;;20.80;94.90;;;;;;5068560;28;20862;-68
2022/07/08 09:02:58;;;;;;;4.70;1.80;;;20.30;94.40;;;;;;5066047;28;20921;-67
2022/07/08 09:05:26;;;;;;;2.57;1.63;;;20.00;95.10;;;;;;5068335;28;20449;-66
2022/07/08 09:07:54;;;;;;;3.70;1.70;;;19.80;95.70;;;;;;5072808;28;20490;-66
2022/07/08 09:10:22;;;;;;;3.73;1.97;;;19.50;96.00;;;;;;5068469;28;20454;-67
2022/07/08 09:13:07;;;;;;;4.50;1.80;;;19.30;95.80;;;;;;5071947;28;21041;-70
2022/07/08 09:15:37;;;;;;;3.87;1.90;;;19.00;95.80;;;;;;5072085;28;20537;-65
2022/07/08 09:18:06;;;;;;;7.80;1.83;;;19.10;96.40;;;;;;5082474;28;20445;-65
2022/07/08 09:20:40;;;;;;;4.47;1.90;;;19.60;95.70;;;;;;5074355;28;20446;-65
2022/07/08 09:23:14;;;;;;;3.67;1.73;;;20.40;95.50;;;;;;5072578;28;20469;-66
2022/07/08 09:25:40;;;;;;;3.93;1.90;;;20.90;94.00;;;;;;5073093;28;20447;-67
2022/07/08 09:28:07;;;;;;;4.07;2.10;;;21.20;94.00;;;;;;5072506;28;21000;-66
2022/07/08 09:30:36;;;;;;;4.70;2.30;;;21.00;93.20;;;;;;5072302;28;20457;-66
2022/07/08 09:33:04;;;;;;;2.90;2.13;;;20.80;93.30;;;;;;5072483;28;21100;-65
2022/07/08 09:35:35;;;;;;;6.77;1.90;;;20.00;94.20;;;;;;5072663;28;20851;-66
2022/07/08 09:38:03;;;;;;;5.60;1.83;;;19.70;95.00;;;;;;5072296;28;20458;-65
2022/07/08 09:40:30;;;;;;;5.30;1.90;;;19.70;95.60;;;;;;5072168;28;20504;-67
2022/07/08 09:42:58;;;;;;;8.73;2.23;;;19.80;95.60;;;;;;5072241;28;20961;-67
2022/07/08 09:45:30;;;;;;;3.80;2.03;;;20.20;94.50;;;;;;5072365;28;20945;-67
2022/07/08 09:48:05;;;;;;;4.67;1.60;;;20.50;94.60;;;;;;5072129;28;20573;-66
2022/07/08 09:50:34;;;;;;;10.20;2.60;;;20.80;93.60;;;;;;5072178;28;20944;-67
2022/07/08 09:53:00;;;;;;;7.00;2.63;;;20.30;94.70;;;;;;5070976;28;20826;-66
2022/07/08 09:55:32;;;;;;;5.57;2.50;;;19.90;94.70;;;;;;5069475;28;20478;-67
2022/07/08 09:58:00;;;;;;;2.93;1.60;;;19.70;95.60;;;;;;5070856;28;20442;-64
2022/07/08 10:00:28;;;;;;;5.97;1.70;;;19.60;95.00;;;;;;5071364;28;20435;-69
2022/07/08 10:02:56;;;;;;;4.87;2.33;;;19.40;94.90;;;;;;5071711;28;20471;-66
2022/07/08 10:05:24;;;;;;;4.50;1.87;;;19.80;94.60;;;;;;5068071;28;20458;-70
2022/07/08 10:07:51;;;;;;;4.23;1.70;;;21.30;94.60;;;;;;5070283;28;20483;-67
2022/07/08 10:10:18;;;;;;;2.50;1.47;;;23.00;91.50;;;;;;5071213;28;20444;-65
2022/07/08 10:12:46;;;;;;;3.90;1.60;;;24.30;87.40;;;;;;5071450;28;20813;-65
2022/07/08 10:15:14;;;;;;;7.07;1.90;;;24.30;87.60;;;;;;5069992;28;20440;-64
2022/07/08 10:17:43;;;;;;;5.60;1.60;;;23.30;86.90;;;;;;5067642;28;20449;-65
2022/07/08 10:20:12;;;;;;;4.17;1.63;;;22.10;90.10;;;;;;5071156;28;20439;-67
2022/07/08 10:22:42;;;;;;;6.23;1.77;;;21.50;91.10;;;;;;5071190;28;20459;-66
2022/07/08 10:25:10;;;;;;;5.20;2.03;;;21.40;91.00;;;;;;5071202;28;20542;-68
2022/07/08 10:27:37;;;;;;;2.90;1.47;;;22.40;90.90;;;;;;5071327;28;20479;-66
2022/07/08 10:30:22;;;;;;;3.13;1.43;;;22.90;87.40;;;;;;5070828;28;20856;-68
2022/07/08 10:32:49;;;;;;;4.37;1.40;;;22.80;88.30;;;;;;5071482;28;20463;-67
2022/07/08 10:35:21;;;;;;;3.60;1.60;;;23.60;86.10;;;;;;5071004;28;20455;-69
2022/07/08 10:37:51;;;;;;;2.70;1.20;;;24.30;83.30;;;;;;5071344;28;20474;-69
2022/07/08 10:40:50;;;;;;;4.80;1.40;;;24.50;83.60;;;;;;5065054;28;20452;-66
2022/07/08 10:43:22;;;;;;;3.73;1.70;;;24.70;82.30;;;;;;5070817;28;20467;-69
2022/07/08 10:46:00;;;;;;;4.53;1.60;;;24.60;81.80;;;;;;5071100;28;20452;-65
2022/07/08 10:48:28;;;;;;;3.57;1.30;;;24.00;80.10;;;;;;5068908;28;20486;-67
2022/07/08 10:50:55;;;;;;;3.73;1.50;;;23.40;82.40;;;;;;5070385;28;20469;-68
2022/07/08 10:53:23;;;;;;;4.13;1.80;;;23.20;85.40;;;;;;5071111;28;20466;-67
2022/07/08 10:55:50;;;;;;;2.87;1.60;;;23.30;84.50;;;;;;5069322;28;20436;-65
2022/07/08 10:58:17;;;;;;;4.70;1.70;;;24.00;87.50;;;;;;5069324;28;20439;-68
2022/07/08 11:01:24;;;;;;;4.60;1.60;;;24.20;83.80;;;;;;5064371;28;20443;-67
2022/07/08 11:03:50;;;;;;;4.30;1.50;;;23.90;83.90;;;;;;5069621;28;20475;-66
2022/07/08 11:06:37;;;;;;;3.20;1.40;;;24.70;82.80;;;;;;5070302;28;20465;-68
2022/07/08 11:09:05;;;;;;;3.80;1.33;;;25.70;78.70;;;;;;5068190;28;20423;-66
2022/07/08 11:11:36;;;;;;;2.97;1.67;;;25.60;75.00;;;;;;5070020;28;20453;-67
2022/07/08 11:14:04;;;;;;;3.90;1.23;;;25.70;75.80;;;;;;5067024;28;20469;-69
2022/07/08 11:16:33;;;;;;;4.60;1.60;;;25.80;77.80;;;;;;5070339;28;20957;-66
2022/07/08 11:19:01;;;;;;;5.37;1.63;;;26.00;75.50;;;;;;5069841;28;20442;-69
2022/07/08 11:21:29;;;;;;;5.53;1.60;;;25.50;78.40;;;;;;5069993;28;20439;-70
2022/07/08 11:23:56;;;;;;;4.20;1.50;;;25.00;77.30;;;;;;5070213;28;21022;-69
2022/07/08 11:26:25;;;;;;;4.50;1.53;;;24.80;78.30;;;;;;5070145;28;20528;-65
2022/07/08 11:28:51;;;;;;;4.87;1.67;;;24.80;80.10;;;;;;5070254;28;20451;-67
2022/07/08 11:31:20;;;;;;;4.87;2.10;;;24.20;78.30;;;;;;5069717;28;20451;-69
2022/07/08 11:33:47;;;;;;;3.80;1.50;;;24.10;79.30;;;;;;5070300;28;20472;-68
2022/07/08 11:36:15;;;;;;;3.13;1.20;;;23.90;79.00;;;;;;5070008;28;20523;-67
2022/07/08 11:38:42;;;;;;;5.03;2.03;;;24.10;80.00;;;;;;5069340;28;20443;-70
2022/07/08 11:41:09;;;;;;;3.33;1.40;;;24.60;81.30;;;;;;5065190;28;20461;-66
2022/07/08 11:43:38;;;;;;;3.53;1.53;;;25.50;83.50;;;;;;5070330;28;20499;-67
2022/07/08 11:46:15;;;;;;;3.00;1.30;;;25.70;76.10;;;;;;5070122;28;20937;-66
2022/07/08 11:48:42;;;;;;;7.03;1.90;;;25.40;73.80;;;;;;5069667;28;21005;-66
2022/07/08 11:51:09;;;;;;;4.10;1.40;;;25.70;75.40;;;;;;5069770;28;20456;-68
2022/07/08 11:53:36;;;;;;;2.50;1.20;;;25.80;73.40;;;;;;5070093;28;20459;-67
2022/07/08 11:56:02;;;;;;;4.60;1.80;;;25.80;72.60;;;;;;5068764;28;20443;-70
2022/07/08 11:58:30;;;;;;;3.63;1.77;;;25.20;74.00;;;;;;5069842;28;20445;-69
2022/07/08 12:00:58;;;;;;;4.00;1.43;;;25.20;73.60;;;;;;5069254;28;20952;-68
2022/07/08 12:03:27;;;;;;;3.23;1.30;;;25.50;71.90;;;;;;5065823;28;20467;-69
2022/07/08 12:05:55;;;;;;;4.10;1.80;;;25.70;72.60;;;;;;5068423;28;20446;-69
2022/07/08 12:08:22;;;;;;;7.50;1.87;;;25.90;72.20;;;;;;5069029;28;20489;-67
2022/07/08 12:10:49;;;;;;;4.37;1.33;;;26.30;72.80;;;;;;5069596;28;20455;-67
2022/07/08 12:13:16;;;;;;;3.03;1.63;;;26.20;71.10;;;;;;5069882;28;21101;-66
2022/07/08 12:15:44;;;;;;;3.30;1.50;;;26.10;72.70;;;;;;5069046;28;20487;-67
2022/07/08 12:18:13;;;;;;;6.10;2.30;;;25.60;72.70;;;;;;5070307;28;20451;-67
2022/07/08 12:20:41;;;;;;;4.33;1.67;;;25.50;74.60;;;;;;5069696;28;20451;-66
2022/07/08 12:23:08;;;;;;;4.20;1.60;;;25.50;73.10;;;;;;5069833;28;20467;-65
2022/07/08 12:25:48;;;;;;;2.83;1.50;;;25.90;70.70;;;;;;5069818;28;20796;-67
2022/07/08 12:28:22;;;;;;;5.57;1.53;;;25.90;72.50;;;;;;5069617;28;20490;-67
2022/07/08 12:30:49;;;;;;;4.47;2.10;;;25.70;73.80;;;;;;5069379;28;20451;-66
2022/07/08 12:33:25;;;;;;;4.30;1.73;;;25.90;73.20;;;;;;5069440;28;20478;-68
2022/07/08 12:35:52;;;;;;;5.20;1.70;;;26.20;72.50;;;;;;5069949;28;20446;-65
2022/07/08 12:38:23;;;;;;;4.17;1.53;;;27.20;79.10;;;;;;5069337;28;20477;-66
2022/07/08 12:40:50;;;;;;;4.60;1.73;;;27.90;71.50;;;;;;5069752;28;20443;-66
2022/07/08 12:43:17;;;;;;;3.20;1.40;;;28.70;67.60;;;;;;5069357;28;20467;-65
2022/07/08 12:45:44;;;;;;;6.57;1.40;;;28.90;67.20;;;;;;5069656;28;20446;-66
2022/07/08 12:48:11;;;;;;;3.03;1.57;;;29.00;64.20;;;;;;5065897;28;20479;-64
2022/07/08 12:50:40;;;;;;;3.90;1.30;;;29.70;69.40;;;;;;5064409;28;20451;-65
2022/07/08 12:53:07;;;;;;;4.00;1.43;;;29.60;62.00;;;;;;5063982;28;20474;-66
2022/07/08 12:55:34;;;;;;;3.40;1.33;;;28.90;61.90;;;;;;5069093;28;20457;-64